Time;durP1;ratioP1;P1;durP2;ratioP2;P2;SDS_P1;SDS_P2;PMS_P1;PMS_P2;Temp;Humidity;BMP_temperature;BMP_pressure;BME280_temperature;BME280_humidity;BME280_pressure;Samples;Min_cycle;Max_cycle;Signal;HPM_P1;HPM_P2
2022/10/25 00:03:45;;;;;;;15.65;11.55;;;19.60;85.30;;;;;;10829140;33;20286;-76
2022/10/25 00:09:47;;;;;;;16.33;12.45;;;19.60;85.40;;;;;;10815822;32;20020;-75
2022/10/25 00:15:49;;;;;;;14.52;12.10;;;19.60;85.50;;;;;;10828646;33;20396;-76
2022/10/25 00:21:51;;;;;;;15.32;11.77;;;19.60;85.40;;;;;;10136167;33;22101649;-75
2022/10/25 00:27:53;;;;;;;17.40;11.55;;;19.60;85.40;;;;;;10714937;33;20055;-76
2022/10/25 00:33:55;;;;;;;17.95;13.57;;;19.60;85.40;;;;;;10715022;33;20064;-75
2022/10/25 00:39:57;;;;;;;16.60;12.25;;;19.60;85.50;;;;;;10714892;33;20440;-76
2022/10/25 00:46:01;;;;;;;16.95;13.05;;;19.60;85.40;;;;;;10714886;33;20061;-76
2022/10/25 00:52:06;;;;;;;14.02;10.55;;;19.60;85.40;;;;;;10714864;33;20033;-76
2022/10/25 00:58:19;;;;;;;21.27;16.08;;;19.60;85.50;;;;;;10704996;33;20037;-77
2022/10/25 01:04:26;;;;;;;17.55;14.48;;;19.50;85.70;;;;;;10717798;33;20016;-76
2022/10/25 01:10:29;;;;;;;18.95;13.18;;;19.40;86.20;;;;;;10717579;33;20033;-76
2022/10/25 01:17:11;;;;;;;17.50;14.07;;;19.40;86.30;;;;;;10704352;33;20087;-76
2022/10/25 01:23:40;;;;;;;14.02;8.70;;;19.50;86.20;;;;;;10606258;33;20033;-76
2022/10/25 01:30:16;;;;;;;17.85;11.85;;;19.50;86.10;;;;;;10605906;33;20060;-76
2022/10/25 01:36:26;;;;;;;22.92;14.80;;;19.50;86.10;;;;;;10719182;33;20037;-76
2022/10/25 01:42:51;;;;;;;17.23;13.48;;;19.50;86.20;;;;;;10714072;33;20328;-76
2022/10/25 01:49:03;;;;;;;20.50;14.02;;;19.50;86.40;;;;;;10717963;33;20060;-77
2022/10/25 01:55:11;;;;;;;18.73;14.27;;;19.50;86.60;;;;;;10730693;33;20024;-76
2022/10/25 02:02:04;;;;;;;26.10;14.73;;;19.50;86.60;;;;;;10791868;33;20401;-77
2022/10/25 02:08:14;;;;;;;22.83;12.60;;;19.50;86.80;;;;;;10681893;33;20025;-76
2022/10/25 02:14:31;;;;;;;13.68;11.30;;;19.50;86.70;;;;;;10788990;33;20036;-76
2022/10/25 02:20:35;;;;;;;18.52;12.77;;;19.50;86.50;;;;;;10789493;33;20036;-76
2022/10/25 02:26:39;;;;;;;17.23;13.27;;;19.50;86.50;;;;;;10777055;33;20032;-76
2022/10/25 02:32:41;;;;;;;19.70;15.02;;;19.50;86.40;;;;;;10788857;33;20060;-76
2022/10/25 02:38:44;;;;;;;18.67;11.82;;;19.50;86.30;;;;;;10776830;33;20032;-75
2022/10/25 02:44:46;;;;;;;15.60;11.85;;;19.50;86.30;;;;;;10717510;33;20052;-76
2022/10/25 02:50:48;;;;;;;20.58;13.10;;;19.50;86.30;;;;;;10714358;33;20021;-76
2022/10/25 02:56:51;;;;;;;16.70;12.07;;;19.40;86.50;;;;;;10709976;33;20025;-78
2022/10/25 03:02:53;;;;;;;19.37;10.98;;;19.40;86.60;;;;;;10714722;33;20021;-77
2022/10/25 03:08:55;;;;;;;13.88;9.55;;;19.30;86.80;;;;;;10714470;33;20357;-78
2022/10/25 03:15:14;;;;;;;14.15;8.15;;;19.30;86.90;;;;;;10714379;33;20033;-78
2022/10/25 03:21:20;;;;;;;9.43;5.60;;;19.30;86.80;;;;;;10710156;33;20021;-76
2022/10/25 03:27:22;;;;;;;7.72;3.85;;;19.20;86.90;;;;;;10712815;33;20065;-77
2022/10/25 03:33:24;;;;;;;7.45;4.55;;;19.20;86.90;;;;;;10714528;33;20053;-77
2022/10/25 03:39:26;;;;;;;3.97;2.90;;;19.10;87.10;;;;;;10714005;33;20036;-79
2022/10/25 03:45:28;;;;;;;7.00;4.30;;;19.00;87.00;;;;;;10714413;33;20386;-79
2022/10/25 03:51:30;;;;;;;7.97;3.72;;;19.00;87.10;;;;;;10713631;33;20051;-77
2022/10/25 03:57:32;;;;;;;4.57;3.65;;;19.00;87.10;;;;;;10713588;33;20047;-76
2022/10/25 04:03:35;;;;;;;6.10;3.25;;;18.90;86.80;;;;;;10714941;33;20033;-73
2022/10/25 04:09:37;;;;;;;4.60;2.87;;;18.90;87.20;;;;;;10706698;33;20333;-73
2022/10/25 04:15:39;;;;;;;7.35;3.22;;;18.80;87.10;;;;;;10719011;33;20033;-74
2022/10/25 04:21:41;;;;;;;5.28;2.83;;;18.70;87.30;;;;;;10718993;33;20087;-76
2022/10/25 04:27:43;;;;;;;2.83;1.87;;;18.70;87.30;;;;;;10718862;33;20024;-75
2022/10/25 04:33:50;;;;;;;3.35;1.95;;;18.70;87.30;;;;;;10718648;33;20338;-75
2022/10/25 04:39:52;;;;;;;5.78;2.37;;;18.70;87.10;;;;;;10718544;33;20021;-76
2022/10/25 04:45:58;;;;;;;4.00;2.08;;;18.60;87.20;;;;;;10718352;33;20029;-75
2022/10/25 04:52:00;;;;;;;5.93;2.10;;;18.60;87.30;;;;;;10717932;33;20033;-75
2022/10/25 04:58:02;;;;;;;3.15;1.77;;;18.50;87.50;;;;;;10717966;33;20048;-74
2022/10/25 05:04:04;;;;;;;2.85;1.98;;;18.50;87.70;;;;;;10717769;33;20349;-75
2022/10/25 05:10:06;;;;;;;5.25;2.05;;;18.60;87.70;;;;;;10717555;33;20048;-75
2022/10/25 05:16:13;;;;;;;6.07;3.60;;;18.60;87.50;;;;;;10716950;33;20033;-74
2022/10/25 05:22:25;;;;;;;4.07;2.30;;;18.60;87.20;;;;;;10704456;33;20033;-73
2022/10/25 05:28:28;;;;;;;5.25;1.87;;;18.40;87.50;;;;;;10716089;33;20029;-73
2022/10/25 05:34:30;;;;;;;3.42;2.03;;;18.30;87.70;;;;;;10716717;33;20044;-73
2022/10/25 05:40:32;;;;;;;3.12;1.55;;;18.30;87.80;;;;;;10716692;33;20079;-74
2022/10/25 05:46:34;;;;;;;2.28;1.70;;;18.30;88.00;;;;;;10716596;33;20025;-74
2022/10/25 05:53:02;;;;;;;2.03;1.35;;;18.20;88.00;;;;;;10716309;33;20091;-73
2022/10/25 05:59:09;;;;;;;1.35;1.20;;;18.00;88.10;;;;;;10714548;33;20050;-74
2022/10/25 06:05:11;;;;;;;1.37;0.90;;;18.10;88.40;;;;;;10712629;33;20048;-74
2022/10/25 06:11:16;;;;;;;0.85;0.80;;;18.10;88.40;;;;;;10715317;33;20037;-75
2022/10/25 06:17:18;;;;;;;1.02;0.85;;;18.20;88.20;;;;;;10715229;33;20032;-75
2022/10/25 06:23:20;;;;;;;1.98;0.77;;;18.20;88.10;;;;;;10710378;32;20052;-75
2022/10/25 06:29:22;;;;;;;2.05;1.00;;;18.20;88.00;;;;;;10715401;33;20083;-76
2022/10/25 06:35:24;;;;;;;1.37;0.95;;;18.20;88.00;;;;;;10714246;33;20025;-76
2022/10/25 06:41:30;;;;;;;1.30;1.17;;;18.10;88.10;;;;;;10715203;33;20032;-75
2022/10/25 06:47:33;;;;;;;1.20;0.93;;;18.10;88.30;;;;;;10714017;33;20090;-75
2022/10/25 06:53:36;;;;;;;3.80;0.80;;;18.20;88.20;;;;;;10677926;33;20033;-75
2022/10/25 06:59:54;;;;;;;5.70;1.08;;;18.20;88.10;;;;;;10677846;33;20322;-75
2022/10/25 07:05:59;;;;;;;1.20;0.85;;;18.30;87.90;;;;;;10678478;33;20021;-74
2022/10/25 07:12:01;;;;;;;3.37;1.40;;;18.30;87.80;;;;;;10678271;33;20427;-74
2022/10/25 07:18:03;;;;;;;2.80;1.50;;;18.30;87.80;;;;;;10675972;33;20034;-74
2022/10/25 07:24:05;;;;;;;1.12;1.02;;;18.10;88.00;;;;;;10677204;33;20022;-74
2022/10/25 07:30:07;;;;;;;1.52;1.00;;;17.90;88.10;;;;;;10677524;33;20346;-74
2022/10/25 07:36:39;;;;;;;2.53;1.52;;;18.00;88.40;;;;;;10679720;33;20063;-73
2022/10/25 07:42:52;;;;;;;1.40;1.10;;;18.10;88.30;;;;;;10683911;33;20025;-73
2022/10/25 07:48:54;;;;;;;0.62;0.62;;;18.00;88.30;;;;;;10679839;32;20296;-74
2022/10/25 07:54:56;;;;;;;2.25;1.23;;;18.20;88.30;;;;;;10683391;33;20028;-74
2022/10/25 08:01:00;;;;;;;1.23;1.12;;;18.10;88.30;;;;;;10683632;33;20044;-75
2022/10/25 08:07:03;;;;;;;0.95;0.88;;;18.10;88.30;;;;;;10683396;33;20078;-75
2022/10/25 08:13:05;;;;;;;2.72;1.05;;;18.10;88.30;;;;;;10683189;33;20325;-74
2022/10/25 08:19:08;;;;;;;3.25;1.50;;;18.20;88.30;;;;;;10682926;33;20029;-74
2022/10/25 08:25:10;;;;;;;5.43;1.30;;;18.20;88.40;;;;;;10741060;27;20417;-74
2022/10/25 08:31:12;;;;;;;1.10;0.88;;;18.20;88.40;;;;;;10754975;33;20470;-74
2022/10/25 08:37:15;;;;;;;3.35;1.37;;;18.20;88.40;;;;;;10754862;33;20025;-73
2022/10/25 08:43:39;;;;;;;2.10;1.37;;;18.30;88.30;;;;;;10754737;33;20012;-74
2022/10/25 08:50:01;;;;;;;0.93;0.93;;;18.40;88.20;;;;;;10754188;33;20051;-73
2022/10/25 08:56:07;;;;;;;2.00;1.48;;;18.30;88.10;;;;;;10739177;33;20377;-73
2022/10/25 09:03:03;;;;;;;2.22;1.50;;;18.30;88.30;;;;;;10752641;33;20299;-72
2022/10/25 09:09:18;;;;;;;1.55;1.10;;;18.30;88.30;;;;;;10571474;33;20044;-73
2022/10/25 09:16:01;;;;;;;0.77;0.77;;;18.30;88.40;;;;;;10571397;33;20069;-73
2022/10/25 09:22:10;;;;;;;4.32;2.30;;;18.50;88.40;;;;;;10570929;33;20073;-73
2022/10/25 09:28:50;;;;;;;3.08;1.65;;;18.50;88.20;;;;;;10571327;33;20355;-73
2022/10/25 09:34:53;;;;;;;3.70;1.55;;;18.50;88.30;;;;;;10571202;33;20378;-73
2022/10/25 09:41:21;;;;;;;7.72;2.30;;;18.40;88.40;;;;;;10651989;33;20029;-73
2022/10/25 09:47:51;;;;;;;8.27;2.62;;;18.50;88.60;;;;;;10752623;33;20008;-73
2022/10/25 09:53:54;;;;;;;2.67;1.73;;;18.60;88.60;;;;;;10749930;33;20029;-72
2022/10/25 09:59:56;;;;;;;5.28;2.25;;;18.70;88.60;;;;;;10748949;33;20039;-73
2022/10/25 10:06:24;;;;;;;2.87;1.87;;;18.90;88.40;;;;;;10751957;33;20329;-73
2022/10/25 10:12:41;;;;;;;2.17;1.75;;;19.00;88.20;;;;;;10751585;33;20021;-73
2022/10/25 10:18:43;;;;;;;3.60;1.77;;;19.20;88.00;;;;;;10751789;33;20025;-73
2022/10/25 10:24:57;;;;;;;6.37;2.08;;;19.30;87.70;;;;;;10751679;33;20297;-72
2022/10/25 10:31:01;;;;;;;2.72;1.58;;;19.40;87.50;;;;;;10751563;33;20016;-73
2022/10/25 10:37:21;;;;;;;2.42;1.15;;;19.50;87.40;;;;;;10751010;33;20021;-73
2022/10/25 10:43:29;;;;;;;2.45;1.33;;;19.70;87.30;;;;;;10751018;33;20316;-73
2022/10/25 10:49:36;;;;;;;4.50;1.77;;;19.80;87.10;;;;;;10750972;33;20039;-73
2022/10/25 10:56:19;;;;;;;2.55;1.08;;;20.00;86.80;;;;;;10746649;33;20028;-73
2022/10/25 11:02:21;;;;;;;2.95;2.12;;;20.20;86.60;;;;;;10750786;33;20040;-73
2022/10/25 11:08:23;;;;;;;3.55;1.75;;;20.30;86.70;;;;;;10749074;33;20060;-74
2022/10/25 11:14:25;;;;;;;7.25;2.00;;;20.50;86.30;;;;;;10755518;33;20037;-73
2022/10/25 11:20:32;;;;;;;2.22;1.48;;;20.70;86.00;;;;;;10756480;33;20020;-73
2022/10/25 11:26:43;;;;;;;5.12;1.65;;;20.90;85.60;;;;;;10757043;33;20048;-73
2022/10/25 11:33:04;;;;;;;3.50;2.30;;;21.00;84.90;;;;;;10756513;33;20421;-72
2022/10/25 11:39:21;;;;;;;1.75;1.42;;;21.20;84.50;;;;;;10756113;33;20017;-73
2022/10/25 11:45:47;;;;;;;3.33;1.37;;;21.30;84.00;;;;;;10756313;33;20055;-71
2022/10/25 11:52:41;;;;;;;1.70;1.37;;;21.30;83.70;;;;;;10755866;33;20345;-72
2022/10/25 11:58:46;;;;;;;1.75;1.42;;;21.30;83.50;;;;;;10755798;33;20388;-71
2022/10/25 12:05:03;;;;;;;3.87;1.98;;;21.40;82.90;;;;;;10755696;33;20337;-71
2022/10/25 12:11:14;;;;;;;3.40;1.50;;;21.40;82.50;;;;;;10755104;33;20028;-72
2022/10/25 12:17:35;;;;;;;2.30;1.50;;;21.40;82.40;;;;;;10756209;33;20024;-72
2022/10/25 12:23:56;;;;;;;2.55;1.45;;;21.40;81.90;;;;;;10754213;33;20017;-72
2022/10/25 12:30:03;;;;;;;2.72;1.15;;;21.40;81.90;;;;;;10754991;33;20033;-72
2022/10/25 12:36:14;;;;;;;4.13;1.93;;;21.40;81.60;;;;;;10754832;33;20024;-71
2022/10/25 12:42:43;;;;;;;2.67;1.23;;;21.40;81.50;;;;;;10755223;33;20090;-72
2022/10/25 12:48:59;;;;;;;1.80;1.10;;;21.30;81.20;;;;;;10754428;33;20307;-72
2022/10/25 12:55:07;;;;;;;0.85;0.80;;;21.30;81.30;;;;;;10754338;33;20028;-72
2022/10/25 13:01:12;;;;;;;3.47;1.37;;;21.30;81.10;;;;;;10753989;33;20330;-73
2022/10/25 13:07:15;;;;;;;2.17;1.30;;;21.40;81.00;;;;;;10753879;33;20411;-72
2022/10/25 13:13:32;;;;;;;2.12;1.30;;;21.40;81.00;;;;;;10753652;33;20037;-72
2022/10/25 13:19:34;;;;;;;3.70;2.08;;;21.50;80.30;;;;;;10740661;33;20029;-73
2022/10/25 13:25:48;;;;;;;2.45;1.42;;;21.50;80.30;;;;;;10753130;33;20307;-72
2022/10/25 13:32:03;;;;;;;3.78;1.40;;;21.50;79.80;;;;;;10760262;33;20036;-73
2022/10/25 13:38:08;;;;;;;2.72;1.37;;;21.50;79.60;;;;;;10789129;33;20348;-73
2022/10/25 13:44:18;;;;;;;3.95;2.40;;;21.50;79.50;;;;;;10789218;33;20272;-73
2022/10/25 13:50:32;;;;;;;2.58;1.42;;;21.60;79.20;;;;;;10769781;33;20040;-73
2022/10/25 13:56:36;;;;;;;2.45;1.20;;;21.70;79.20;;;;;;10752571;33;20029;-73
2022/10/25 14:03:21;;;;;;;3.50;2.15;;;21.70;79.30;;;;;;10751838;33;20047;-73
2022/10/25 14:09:33;;;;;;;1.65;1.35;;;21.80;78.70;;;;;;10753126;33;20403;-73
2022/10/25 14:16:03;;;;;;;2.30;1.50;;;21.80;78.40;;;;;;10736993;33;20020;-73
2022/10/25 14:22:40;;;;;;;4.72;1.45;;;21.80;78.40;;;;;;10732713;33;20033;-73
2022/10/25 14:28:42;;;;;;;2.90;1.33;;;21.90;78.00;;;;;;10739473;33;20021;-73
2022/10/25 14:34:50;;;;;;;2.25;1.27;;;22.00;77.50;;;;;;10747612;33;20198;-73
2022/10/25 14:40:55;;;;;;;3.77;1.73;;;22.00;77.10;;;;;;10751394;33;20025;-73
2022/10/25 14:46:59;;;;;;;1.15;0.98;;;22.00;77.00;;;;;;10750563;33;20275;-73
2022/10/25 14:53:01;;;;;;;5.95;1.80;;;22.10;76.80;;;;;;10750987;33;20051;-73
2022/10/25 14:59:06;;;;;;;2.92;1.75;;;22.10;76.80;;;;;;10750887;33;20068;-73
2022/10/25 15:05:20;;;;;;;2.92;2.20;;;22.00;77.10;;;;;;10750699;33;20021;-73
2022/10/25 15:11:23;;;;;;;4.22;1.37;;;21.90;77.30;;;;;;10750758;33;20044;-73
2022/10/25 15:17:29;;;;;;;2.75;1.70;;;22.00;77.40;;;;;;10750539;33;20043;-73
2022/10/25 15:24:22;;;;;;;4.30;1.33;;;21.90;77.70;;;;;;10750351;33;20017;-73
2022/10/25 15:30:48;;;;;;;4.70;1.27;;;21.80;77.90;;;;;;10750268;33;20060;-73
2022/10/25 15:37:12;;;;;;;3.50;1.60;;;21.60;78.30;;;;;;10751405;33;20341;-73
2022/10/25 15:43:14;;;;;;;3.83;1.30;;;21.40;78.70;;;;;;10749780;33;20051;-74
2022/10/25 15:49:17;;;;;;;2.33;1.27;;;21.30;79.00;;;;;;10746616;33;20067;-74
2022/10/25 15:55:22;;;;;;;1.83;1.12;;;21.20;79.30;;;;;;10749615;33;20033;-74
2022/10/25 16:01:24;;;;;;;12.10;2.83;;;21.00;79.60;;;;;;10755461;33;20009;-74
2022/10/25 16:07:26;;;;;;;3.92;1.77;;;20.90;79.90;;;;;;10755685;33;20438;-74
2022/10/25 16:13:36;;;;;;;1.73;1.08;;;20.80;80.10;;;;;;10754048;33;20393;-74
2022/10/25 16:19:38;;;;;;;5.22;2.08;;;20.70;80.30;;;;;;10754336;33;20029;-74
2022/10/25 16:25:40;;;;;;;2.22;1.30;;;20.50;80.60;;;;;;10712995;27;20037;-74
2022/10/25 16:31:43;;;;;;;2.42;1.55;;;20.30;80.70;;;;;;10714404;33;20398;-74
2022/10/25 16:37:45;;;;;;;3.42;1.95;;;20.30;80.90;;;;;;10718394;33;20436;-74
2022/10/25 16:43:47;;;;;;;6.35;2.45;;;20.20;81.10;;;;;;10718489;33;20025;-74
2022/10/25 16:49:50;;;;;;;2.55;1.48;;;20.10;81.20;;;;;;10713953;33;20292;-74
2022/10/25 16:55:52;;;;;;;4.70;1.62;;;20.00;81.50;;;;;;10717782;33;20413;-74
2022/10/25 17:01:54;;;;;;;2.90;1.65;;;19.90;81.70;;;;;;10717872;32;20033;-74
2022/10/25 17:07:57;;;;;;;5.00;3.12;;;19.80;81.80;;;;;;10704297;33;20056;-74
2022/10/25 17:13:58;;;;;;;4.37;2.08;;;19.80;81.80;;;;;;10717680;33;20353;-74
2022/10/25 17:20:00;;;;;;;4.00;2.22;;;19.80;81.90;;;;;;10717338;33;20028;-74
2022/10/25 17:26:03;;;;;;;5.45;2.37;;;19.70;82.30;;;;;;10704354;33;20044;-74
2022/10/25 17:32:05;;;;;;;5.95;3.08;;;19.60;82.30;;;;;;10716767;33;20021;-74
2022/10/25 17:38:09;;;;;;;3.47;2.05;;;19.60;82.40;;;;;;10716594;33;20420;-74
2022/10/25 17:44:16;;;;;;;3.00;2.20;;;19.50;82.50;;;;;;10716643;33;20048;-74
2022/10/25 17:50:30;;;;;;;3.67;2.40;;;19.50;82.50;;;;;;10716531;33;20040;-74
2022/10/25 17:56:32;;;;;;;5.53;2.58;;;19.50;82.50;;;;;;10716000;32;20051;-74
2022/10/25 18:02:35;;;;;;;4.82;3.08;;;19.40;82.60;;;;;;10716238;33;20025;-74
2022/10/25 18:08:37;;;;;;;5.22;3.10;;;19.30;82.90;;;;;;10716013;33;20424;-74
2022/10/25 18:14:39;;;;;;;5.05;2.87;;;19.30;83.30;;;;;;10711781;33;20045;-74
2022/10/25 18:20:42;;;;;;;4.72;3.00;;;19.20;83.60;;;;;;10714697;33;20028;-74
2022/10/25 18:26:44;;;;;;;4.80;2.17;;;19.10;83.80;;;;;;10715591;33;20429;-74
2022/10/25 18:32:47;;;;;;;5.53;2.95;;;19.10;83.80;;;;;;10715323;33;20033;-74
2022/10/25 18:38:49;;;;;;;3.42;2.33;;;19.00;83.80;;;;;;10711370;33;20064;-74
2022/10/25 18:44:58;;;;;;;5.62;3.90;;;19.00;83.70;;;;;;10715066;33;20063;-74
2022/10/25 18:51:20;;;;;;;7.32;3.47;;;19.00;83.70;;;;;;10715021;33;20064;-74
2022/10/25 18:57:29;;;;;;;6.57;4.15;;;18.90;83.70;;;;;;10710591;33;20026;-74
2022/10/25 19:03:32;;;;;;;8.15;5.30;;;18.80;83.70;;;;;;10714755;33;20029;-74
2022/10/25 19:09:34;;;;;;;6.00;3.92;;;18.70;83.80;;;;;;10712696;33;20060;-74
2022/10/25 19:15:36;;;;;;;8.18;4.82;;;18.70;83.70;;;;;;10710993;33;20025;-74
2022/10/25 19:21:38;;;;;;;6.15;4.62;;;18.70;83.70;;;;;;10710428;33;20052;-74
2022/10/25 19:27:40;;;;;;;8.50;4.68;;;18.70;83.80;;;;;;10713971;33;20048;-74
2022/10/25 19:33:48;;;;;;;8.68;4.85;;;18.70;83.80;;;;;;10717473;33;20102;-74
2022/10/25 19:39:51;;;;;;;7.07;4.55;;;18.70;83.80;;;;;;10720290;33;20055;-74
2022/10/25 19:45:57;;;;;;;5.60;3.67;;;18.60;83.80;;;;;;10718459;33;20398;-74
2022/10/25 19:52:00;;;;;;;10.52;5.90;;;18.60;84.00;;;;;;10719783;33;20051;-74
2022/10/25 19:58:16;;;;;;;7.07;4.65;;;18.60;84.10;;;;;;10715633;33;20029;-74
2022/10/25 20:04:18;;;;;;;6.47;3.97;;;18.60;84.00;;;;;;10716829;33;20349;-74
2022/10/25 20:10:20;;;;;;;6.57;4.40;;;18.50;84.30;;;;;;10719032;33;20036;-74
2022/10/25 20:16:23;;;;;;;8.77;4.80;;;18.50;84.40;;;;;;10703029;33;20055;-74
2022/10/25 20:22:25;;;;;;;7.05;4.70;;;18.50;84.40;;;;;;10719022;33;20028;-74
2022/10/25 20:28:29;;;;;;;7.20;5.90;;;18.40;84.70;;;;;;10715409;33;20055;-74
2022/10/25 20:34:33;;;;;;;9.52;5.80;;;18.40;84.50;;;;;;10718620;33;20025;-74
2022/10/25 20:40:35;;;;;;;7.35;5.12;;;18.30;84.50;;;;;;10718454;33;20064;-74
2022/10/25 20:46:37;;;;;;;7.50;4.65;;;18.30;84.50;;;;;;10717720;33;20025;-74
2022/10/25 20:52:54;;;;;;;9.55;5.20;;;18.30;84.60;;;;;;10780248;32;20036;-74
2022/10/25 20:58:56;;;;;;;8.85;5.72;;;18.30;84.70;;;;;;10718159;33;20025;-74
2022/10/25 21:04:58;;;;;;;9.80;5.90;;;18.20;84.70;;;;;;10717848;33;20398;-74
2022/10/25 21:11:02;;;;;;;8.32;5.20;;;18.20;84.70;;;;;;10713697;33;20345;-74
2022/10/25 21:17:04;;;;;;;7.80;5.12;;;18.10;84.80;;;;;;10749772;32;20087;-74
2022/10/25 21:23:06;;;;;;;7.00;4.68;;;18.10;84.80;;;;;;10681195;33;20033;-74
2022/10/25 21:29:08;;;;;;;7.20;4.72;;;18.10;84.80;;;;;;10681232;33;20026;-74
2022/10/25 21:35:20;;;;;;;5.95;4.22;;;18.00;84.80;;;;;;10680879;33;20386;-74
2022/10/25 21:41:37;;;;;;;5.00;3.70;;;18.00;84.80;;;;;;10680868;33;20029;-74
2022/10/25 21:47:39;;;;;;;8.68;4.47;;;18.00;84.70;;;;;;10680607;33;20044;-74
2022/10/25 21:53:42;;;;;;;8.48;4.75;;;17.90;85.00;;;;;;10680366;33;20017;-74
2022/10/25 21:59:44;;;;;;;4.57;3.33;;;17.90;85.00;;;;;;10680389;33;20057;-74
2022/10/25 22:05:46;;;;;;;6.47;4.20;;;17.80;85.00;;;;;;10680126;33;20021;-74
2022/10/25 22:11:51;;;;;;;4.80;3.22;;;17.80;85.20;;;;;;10680111;33;20352;-74
2022/10/25 22:17:53;;;;;;;5.70;4.40;;;17.80;85.10;;;;;;10679716;33;20030;-74
2022/10/25 22:23:55;;;;;;;6.32;4.10;;;17.80;85.10;;;;;;10679671;33;20039;-74
2022/10/25 22:29:57;;;;;;;6.32;4.72;;;17.80;85.20;;;;;;10679640;33;20067;-74
2022/10/25 22:36:17;;;;;;;7.00;5.07;;;17.80;85.00;;;;;;10741012;32;20033;-74
2022/10/25 22:42:18;;;;;;;;;;;17.80;84.80;;;;;;10675498;33;20055;-74
2022/10/25 22:48:32;;;;;;;5.93;3.37;;;17.80;84.80;;;;;;10675016;33;19960;-74
2022/10/25 22:54:33;;;;;;;5.87;3.83;;;17.70;85.10;;;;;;10678932;33;20091;-74
2022/10/25 23:00:35;;;;;;;6.95;3.87;;;17.70;85.10;;;;;;10679005;33;20021;-74
2022/10/25 23:06:39;;;;;;;7.07;4.28;;;17.80;85.20;;;;;;10677492;33;20025;-74
2022/10/25 23:12:41;;;;;;;6.05;3.60;;;17.80;85.40;;;;;;10685034;33;20048;-74
2022/10/25 23:18:43;;;;;;;4.68;3.55;;;17.70;85.20;;;;;;10684974;33;20022;-74
2022/10/25 23:24:46;;;;;;;5.37;3.37;;;17.70;85.30;;;;;;10684549;33;20025;-74
2022/10/25 23:30:48;;;;;;;5.82;3.78;;;17.70;85.40;;;;;;10684521;33;20018;-74
2022/10/25 23:36:50;;;;;;;3.87;3.00;;;17.60;85.30;;;;;;10684341;33;20060;-74
2022/10/25 23:42:52;;;;;;;9.77;3.42;;;17.60;85.30;;;;;;10684284;33;20018;-74
2022/10/25 23:48:54;;;;;;;6.55;3.35;;;17.50;85.50;;;;;;10683987;33;20086;-74
2022/10/25 23:54:57;;;;;;;3.95;3.15;;;17.50;85.40;;;;;;10683880;33;20026;-74
